sensor_id;sensor_type;location;lat;lon;timestamp;temperature;humidity
24152;DHT22;12311;50.866;4.332;2023-07-29T00:02:19;19.90;99.90
24152;DHT22;12311;50.866;4.332;2023-07-29T00:04:45;19.90;99.90
24152;DHT22;12311;50.866;4.332;2023-07-29T00:07:10;19.90;99.90
24152;DHT22;12311;50.866;4.332;2023-07-29T00:09:36;19.90;99.90
24152;DHT22;12311;50.866;4.332;2023-07-29T00:12:03;19.90;99.90
24152;DHT22;12311;50.866;4.332;2023-07-29T00:14:29;19.80;99.90
24152;DHT22;12311;50.866;4.332;2023-07-29T00:16:55;19.70;99.90
24152;DHT22;12311;50.866;4.332;2023-07-29T00:19:21;19.60;99.90
24152;DHT22;12311;50.866;4.332;2023-07-29T00:21:49;19.60;99.90
24152;DHT22;12311;50.866;4.332;2023-07-29T00:24:16;19.50;99.90
24152;DHT22;12311;50.866;4.332;2023-07-29T00:26:41;19.40;99.90
24152;DHT22;12311;50.866;4.332;2023-07-29T00:29:07;19.30;99.90
24152;DHT22;12311;50.866;4.332;2023-07-29T00:31:33;19.30;99.90
24152;DHT22;12311;50.866;4.332;2023-07-29T00:33:58;19.30;99.90
24152;DHT22;12311;50.866;4.332;2023-07-29T00:36:24;19.30;99.90
24152;DHT22;12311;50.866;4.332;2023-07-29T00:38:50;19.20;99.90
24152;DHT22;12311;50.866;4.332;2023-07-29T00:41:16;19.10;99.90
24152;DHT22;12311;50.866;4.332;2023-07-29T00:43:41;19.00;99.90
24152;DHT22;12311;50.866;4.332;2023-07-29T00:46:09;19.00;99.90
24152;DHT22;12311;50.866;4.332;2023-07-29T00:48:35;19.00;99.90
24152;DHT22;12311;50.866;4.332;2023-07-29T00:51:01;18.90;99.90
24152;DHT22;12311;50.866;4.332;2023-07-29T00:53:26;18.90;99.90
24152;DHT22;12311;50.866;4.332;2023-07-29T00:55:52;18.90;99.90
24152;DHT22;12311;50.866;4.332;2023-07-29T00:58:19;18.90;99.90
24152;DHT22;12311;50.866;4.332;2023-07-29T01:00:45;18.90;99.90
24152;DHT22;12311;50.866;4.332;2023-07-29T01:03:10;18.80;99.90
24152;DHT22;12311;50.866;4.332;2023-07-29T01:09:00;18.80;99.90
24152;DHT22;12311;50.866;4.332;2023-07-29T01:11:46;18.70;99.90
24152;DHT22;12311;50.866;4.332;2023-07-29T01:14:26;18.70;99.90
24152;DHT22;12311;50.866;4.332;2023-07-29T01:17:00;18.60;99.90
24152;DHT22;12311;50.866;4.332;2023-07-29T01:19:43;18.60;99.90
24152;DHT22;12311;50.866;4.332;2023-07-29T01:22:16;18.60;99.90
24152;DHT22;12311;50.866;4.332;2023-07-29T01:24:42;18.60;99.90
24152;DHT22;12311;50.866;4.332;2023-07-29T01:27:07;18.50;99.90
24152;DHT22;12311;50.866;4.332;2023-07-29T01:29:33;18.50;99.90
24152;DHT22;12311;50.866;4.332;2023-07-29T01:32:06;18.50;99.90
24152;DHT22;12311;50.866;4.332;2023-07-29T01:34:41;18.60;99.90
24152;DHT22;12311;50.866;4.332;2023-07-29T01:37:09;18.50;99.90
24152;DHT22;12311;50.866;4.332;2023-07-29T01:39:38;18.50;99.90
24152;DHT22;12311;50.866;4.332;2023-07-29T01:42:04;18.40;99.90
24152;DHT22;12311;50.866;4.332;2023-07-29T01:44:31;18.50;99.90
24152;DHT22;12311;50.866;4.332;2023-07-29T01:46:57;18.50;99.90
24152;DHT22;12311;50.866;4.332;2023-07-29T01:49:23;18.40;99.90
24152;DHT22;12311;50.866;4.332;2023-07-29T01:51:49;18.40;99.90
24152;DHT22;12311;50.866;4.332;2023-07-29T01:54:14;18.40;99.90
24152;DHT22;12311;50.866;4.332;2023-07-29T01:56:40;18.40;99.90
24152;DHT22;12311;50.866;4.332;2023-07-29T01:59:06;18.40;99.90
24152;DHT22;12311;50.866;4.332;2023-07-29T02:01:32;18.40;99.90
24152;DHT22;12311;50.866;4.332;2023-07-29T02:03:58;18.30;99.90
24152;DHT22;12311;50.866;4.332;2023-07-29T02:06:23;18.20;99.90
24152;DHT22;12311;50.866;4.332;2023-07-29T02:08:51;18.20;99.90
24152;DHT22;12311;50.866;4.332;2023-07-29T02:11:19;18.20;99.90
24152;DHT22;12311;50.866;4.332;2023-07-29T02:13:46;18.30;99.90
24152;DHT22;12311;50.866;4.332;2023-07-29T02:16:11;18.30;99.90
24152;DHT22;12311;50.866;4.332;2023-07-29T02:18:38;18.30;99.90
24152;DHT22;12311;50.866;4.332;2023-07-29T02:21:04;18.30;99.90
24152;DHT22;12311;50.866;4.332;2023-07-29T02:23:30;18.30;99.90
24152;DHT22;12311;50.866;4.332;2023-07-29T02:25:55;18.20;99.90
24152;DHT22;12311;50.866;4.332;2023-07-29T02:28:21;18.10;99.90
24152;DHT22;12311;50.866;4.332;2023-07-29T02:30:47;18.20;99.90
24152;DHT22;12311;50.866;4.332;2023-07-29T02:33:27;18.20;99.90
24152;DHT22;12311;50.866;4.332;2023-07-29T02:35:53;18.20;99.90
24152;DHT22;12311;50.866;4.332;2023-07-29T02:38:19;18.10;99.90
24152;DHT22;12311;50.866;4.332;2023-07-29T02:40:44;18.20;99.90
24152;DHT22;12311;50.866;4.332;2023-07-29T02:43:10;18.20;99.90
24152;DHT22;12311;50.866;4.332;2023-07-29T02:45:36;18.20;99.90
24152;DHT22;12311;50.866;4.332;2023-07-29T02:48:01;18.10;99.90
24152;DHT22;12311;50.866;4.332;2023-07-29T02:50:27;18.10;99.90
24152;DHT22;12311;50.866;4.332;2023-07-29T02:52:53;18.00;99.90
24152;DHT22;12311;50.866;4.332;2023-07-29T02:55:19;18.00;99.90
24152;DHT22;12311;50.866;4.332;2023-07-29T02:57:45;18.00;99.90
24152;DHT22;12311;50.866;4.332;2023-07-29T03:00:11;18.00;99.90
24152;DHT22;12311;50.866;4.332;2023-07-29T03:02:37;18.10;99.90
24152;DHT22;12311;50.866;4.332;2023-07-29T03:05:03;18.10;99.90
24152;DHT22;12311;50.866;4.332;2023-07-29T03:07:29;18.10;99.90
24152;DHT22;12311;50.866;4.332;2023-07-29T03:09:56;18.10;99.90
24152;DHT22;12311;50.866;4.332;2023-07-29T03:12:22;18.10;99.90
24152;DHT22;12311;50.866;4.332;2023-07-29T03:14:49;18.00;99.90
24152;DHT22;12311;50.866;4.332;2023-07-29T03:17:14;18.00;99.90
24152;DHT22;12311;50.866;4.332;2023-07-29T03:19:40;17.90;99.90
24152;DHT22;12311;50.866;4.332;2023-07-29T03:22:06;17.90;99.90
24152;DHT22;12311;50.866;4.332;2023-07-29T03:24:32;17.80;99.90
24152;DHT22;12311;50.866;4.332;2023-07-29T03:26:58;17.80;99.90
24152;DHT22;12311;50.866;4.332;2023-07-29T03:29:23;17.90;99.90
24152;DHT22;12311;50.866;4.332;2023-07-29T03:31:49;17.90;99.90
24152;DHT22;12311;50.866;4.332;2023-07-29T03:34:15;17.90;99.90
24152;DHT22;12311;50.866;4.332;2023-07-29T03:36:41;17.80;99.90
24152;DHT22;12311;50.866;4.332;2023-07-29T03:39:06;17.80;99.90
24152;DHT22;12311;50.866;4.332;2023-07-29T03:41:34;17.90;99.90
24152;DHT22;12311;50.866;4.332;2023-07-29T03:44:00;18.00;99.90
24152;DHT22;12311;50.866;4.332;2023-07-29T03:46:26;17.90;99.90
24152;DHT22;12311;50.866;4.332;2023-07-29T03:48:52;17.90;99.90
24152;DHT22;12311;50.866;4.332;2023-07-29T03:51:17;17.90;99.90
24152;DHT22;12311;50.866;4.332;2023-07-29T03:53:43;17.80;99.90
24152;DHT22;12311;50.866;4.332;2023-07-29T03:56:09;17.80;99.90
24152;DHT22;12311;50.866;4.332;2023-07-29T03:58:35;17.80;99.90
24152;DHT22;12311;50.866;4.332;2023-07-29T04:01:00;17.70;99.90
24152;DHT22;12311;50.866;4.332;2023-07-29T04:03:26;17.60;99.90
24152;DHT22;12311;50.866;4.332;2023-07-29T04:05:52;17.70;99.90
24152;DHT22;12311;50.866;4.332;2023-07-29T04:08:19;17.70;99.90
24152;DHT22;12311;50.866;4.332;2023-07-29T04:10:44;17.70;99.90
24152;DHT22;12311;50.866;4.332;2023-07-29T04:13:10;17.70;99.90
24152;DHT22;12311;50.866;4.332;2023-07-29T04:15:36;17.60;99.90
24152;DHT22;12311;50.866;4.332;2023-07-29T04:18:01;17.70;99.90
24152;DHT22;12311;50.866;4.332;2023-07-29T04:20:27;17.60;99.90
24152;DHT22;12311;50.866;4.332;2023-07-29T04:22:53;17.60;99.90
24152;DHT22;12311;50.866;4.332;2023-07-29T04:25:18;17.70;99.90
24152;DHT22;12311;50.866;4.332;2023-07-29T04:27:44;17.60;99.90
24152;DHT22;12311;50.866;4.332;2023-07-29T04:30:10;17.70;99.90
24152;DHT22;12311;50.866;4.332;2023-07-29T04:32:36;17.70;99.90
24152;DHT22;12311;50.866;4.332;2023-07-29T04:35:02;17.80;99.90
24152;DHT22;12311;50.866;4.332;2023-07-29T04:37:27;17.80;99.90
24152;DHT22;12311;50.866;4.332;2023-07-29T04:39:53;17.80;99.90
24152;DHT22;12311;50.866;4.332;2023-07-29T04:42:19;17.80;99.90
24152;DHT22;12311;50.866;4.332;2023-07-29T04:44:44;17.80;99.90
24152;DHT22;12311;50.866;4.332;2023-07-29T04:47:10;17.80;99.90
24152;DHT22;12311;50.866;4.332;2023-07-29T04:49:36;17.70;99.90
24152;DHT22;12311;50.866;4.332;2023-07-29T04:52:01;17.70;99.90
24152;DHT22;12311;50.866;4.332;2023-07-29T04:54:27;17.80;99.90
24152;DHT22;12311;50.866;4.332;2023-07-29T04:56:53;17.80;99.90
24152;DHT22;12311;50.866;4.332;2023-07-29T04:59:19;17.70;99.90
24152;DHT22;12311;50.866;4.332;2023-07-29T05:01:45;17.70;99.90
24152;DHT22;12311;50.866;4.332;2023-07-29T05:04:11;17.70;99.90
24152;DHT22;12311;50.866;4.332;2023-07-29T05:06:36;17.70;99.90
24152;DHT22;12311;50.866;4.332;2023-07-29T05:09:18;17.70;99.90
24152;DHT22;12311;50.866;4.332;2023-07-29T05:11:45;17.70;99.90
24152;DHT22;12311;50.866;4.332;2023-07-29T05:14:15;17.60;99.90
24152;DHT22;12311;50.866;4.332;2023-07-29T05:16:41;17.60;99.90
24152;DHT22;12311;50.866;4.332;2023-07-29T05:19:06;17.60;99.90
24152;DHT22;12311;50.866;4.332;2023-07-29T05:21:33;17.60;99.90
24152;DHT22;12311;50.866;4.332;2023-07-29T05:23:58;17.60;99.90
24152;DHT22;12311;50.866;4.332;2023-07-29T05:26:24;17.60;99.90
24152;DHT22;12311;50.866;4.332;2023-07-29T05:28:50;17.60;99.90
24152;DHT22;12311;50.866;4.332;2023-07-29T05:31:16;17.60;99.90
24152;DHT22;12311;50.866;4.332;2023-07-29T05:33:42;17.60;99.90
24152;DHT22;12311;50.866;4.332;2023-07-29T05:36:09;17.70;99.90
24152;DHT22;12311;50.866;4.332;2023-07-29T05:38:34;17.60;99.90
24152;DHT22;12311;50.866;4.332;2023-07-29T05:41:00;17.60;99.90
24152;DHT22;12311;50.866;4.332;2023-07-29T05:43:27;17.70;99.90
24152;DHT22;12311;50.866;4.332;2023-07-29T05:45:53;17.80;99.90
24152;DHT22;12311;50.866;4.332;2023-07-29T05:48:19;17.90;99.90
24152;DHT22;12311;50.866;4.332;2023-07-29T05:50:45;18.00;99.90
24152;DHT22;12311;50.866;4.332;2023-07-29T05:53:11;18.10;99.90
24152;DHT22;12311;50.866;4.332;2023-07-29T05:55:37;18.10;99.90
24152;DHT22;12311;50.866;4.332;2023-07-29T05:58:02;18.20;99.90
24152;DHT22;12311;50.866;4.332;2023-07-29T06:00:28;18.20;99.90
24152;DHT22;12311;50.866;4.332;2023-07-29T06:02:54;18.20;99.90
24152;DHT22;12311;50.866;4.332;2023-07-29T06:05:19;18.20;99.90
24152;DHT22;12311;50.866;4.332;2023-07-29T06:07:45;18.30;99.90
24152;DHT22;12311;50.866;4.332;2023-07-29T06:10:13;18.40;99.90
24152;DHT22;12311;50.866;4.332;2023-07-29T06:12:39;18.50;99.90
24152;DHT22;12311;50.866;4.332;2023-07-29T06:15:05;18.60;99.90
24152;DHT22;12311;50.866;4.332;2023-07-29T06:17:31;18.60;99.90
24152;DHT22;12311;50.866;4.332;2023-07-29T06:19:56;18.70;99.90
24152;DHT22;12311;50.866;4.332;2023-07-29T06:22:22;18.80;99.90
24152;DHT22;12311;50.866;4.332;2023-07-29T06:24:48;19.00;99.90
24152;DHT22;12311;50.866;4.332;2023-07-29T06:27:13;19.10;99.90
24152;DHT22;12311;50.866;4.332;2023-07-29T06:29:39;19.10;99.90
24152;DHT22;12311;50.866;4.332;2023-07-29T06:32:05;19.20;99.90
24152;DHT22;12311;50.866;4.332;2023-07-29T06:34:31;19.30;99.90
24152;DHT22;12311;50.866;4.332;2023-07-29T06:36:56;19.50;99.90
24152;DHT22;12311;50.866;4.332;2023-07-29T06:39:22;19.60;99.90
24152;DHT22;12311;50.866;4.332;2023-07-29T06:41:48;19.60;99.90
24152;DHT22;12311;50.866;4.332;2023-07-29T06:44:13;19.60;99.90
24152;DHT22;12311;50.866;4.332;2023-07-29T06:46:39;19.70;99.90
24152;DHT22;12311;50.866;4.332;2023-07-29T06:49:05;19.70;99.90
24152;DHT22;12311;50.866;4.332;2023-07-29T06:51:31;19.70;99.90
24152;DHT22;12311;50.866;4.332;2023-07-29T06:54:00;19.70;99.90
24152;DHT22;12311;50.866;4.332;2023-07-29T06:56:26;19.90;99.90
24152;DHT22;12311;50.866;4.332;2023-07-29T06:58:51;19.80;99.90
24152;DHT22;12311;50.866;4.332;2023-07-29T07:01:17;19.80;99.90
24152;DHT22;12311;50.866;4.332;2023-07-29T07:03:43;19.70;99.90
24152;DHT22;12311;50.866;4.332;2023-07-29T07:06:08;19.70;99.90
24152;DHT22;12311;50.866;4.332;2023-07-29T07:08:34;19.80;99.90
24152;DHT22;12311;50.866;4.332;2023-07-29T07:11:00;19.80;99.90
24152;DHT22;12311;50.866;4.332;2023-07-29T07:13:25;19.80;99.90
24152;DHT22;12311;50.866;4.332;2023-07-29T07:15:54;19.80;99.90
24152;DHT22;12311;50.866;4.332;2023-07-29T07:18:20;19.90;99.90
24152;DHT22;12311;50.866;4.332;2023-07-29T07:20:50;19.90;99.90
24152;DHT22;12311;50.866;4.332;2023-07-29T07:23:16;19.80;99.90
24152;DHT22;12311;50.866;4.332;2023-07-29T07:25:42;19.90;99.90
24152;DHT22;12311;50.866;4.332;2023-07-29T07:28:09;19.70;99.90
24152;DHT22;12311;50.866;4.332;2023-07-29T07:30:34;19.80;99.90
24152;DHT22;12311;50.866;4.332;2023-07-29T07:33:00;19.90;99.90
24152;DHT22;12311;50.866;4.332;2023-07-29T07:35:26;19.90;99.90
24152;DHT22;12311;50.866;4.332;2023-07-29T07:37:52;19.90;99.90
24152;DHT22;12311;50.866;4.332;2023-07-29T07:40:18;19.90;99.90
24152;DHT22;12311;50.866;4.332;2023-07-29T07:42:43;19.90;99.90
24152;DHT22;12311;50.866;4.332;2023-07-29T07:45:09;20.20;99.90
24152;DHT22;12311;50.866;4.332;2023-07-29T07:47:35;20.20;99.90
24152;DHT22;12311;50.866;4.332;2023-07-29T07:50:00;20.40;99.90
24152;DHT22;12311;50.866;4.332;2023-07-29T07:52:27;20.50;99.90
24152;DHT22;12311;50.866;4.332;2023-07-29T07:54:53;20.70;99.90
24152;DHT22;12311;50.866;4.332;2023-07-29T07:57:21;20.70;99.90
24152;DHT22;12311;50.866;4.332;2023-07-29T07:59:47;20.40;99.90
24152;DHT22;12311;50.866;4.332;2023-07-29T08:02:12;20.50;99.90
24152;DHT22;12311;50.866;4.332;2023-07-29T08:04:38;20.60;99.90
24152;DHT22;12311;50.866;4.332;2023-07-29T08:07:04;20.70;99.90
24152;DHT22;12311;50.866;4.332;2023-07-29T08:09:30;20.70;99.90
24152;DHT22;12311;50.866;4.332;2023-07-29T08:11:55;20.80;99.90
24152;DHT22;12311;50.866;4.332;2023-07-29T08:14:21;20.90;99.90
24152;DHT22;12311;50.866;4.332;2023-07-29T08:16:47;21.20;99.90
24152;DHT22;12311;50.866;4.332;2023-07-29T08:19:12;21.40;99.90
24152;DHT22;12311;50.866;4.332;2023-07-29T08:21:38;21.50;99.90
24152;DHT22;12311;50.866;4.332;2023-07-29T08:24:04;21.40;99.90
24152;DHT22;12311;50.866;4.332;2023-07-29T08:26:29;21.30;99.90
24152;DHT22;12311;50.866;4.332;2023-07-29T08:28:56;21.40;99.90
24152;DHT22;12311;50.866;4.332;2023-07-29T08:31:22;21.60;99.90
24152;DHT22;12311;50.866;4.332;2023-07-29T08:33:48;21.70;99.90
24152;DHT22;12311;50.866;4.332;2023-07-29T08:36:13;21.70;99.90
24152;DHT22;12311;50.866;4.332;2023-07-29T08:38:39;21.70;99.90
24152;DHT22;12311;50.866;4.332;2023-07-29T08:41:26;21.70;99.90
24152;DHT22;12311;50.866;4.332;2023-07-29T08:43:59;21.70;99.90
24152;DHT22;12311;50.866;4.332;2023-07-29T08:46:30;21.60;99.90
24152;DHT22;12311;50.866;4.332;2023-07-29T08:48:56;21.40;99.90
24152;DHT22;12311;50.866;4.332;2023-07-29T08:51:23;21.30;99.90
24152;DHT22;12311;50.866;4.332;2023-07-29T08:53:49;21.10;99.90
24152;DHT22;12311;50.866;4.332;2023-07-29T08:56:15;21.30;99.90
24152;DHT22;12311;50.866;4.332;2023-07-29T08:58:42;21.60;99.90
24152;DHT22;12311;50.866;4.332;2023-07-29T09:01:08;21.80;99.90
24152;DHT22;12311;50.866;4.332;2023-07-29T09:03:34;22.30;99.90
24152;DHT22;12311;50.866;4.332;2023-07-29T09:06:02;22.40;99.90
24152;DHT22;12311;50.866;4.332;2023-07-29T09:08:28;22.30;99.90
24152;DHT22;12311;50.866;4.332;2023-07-29T09:10:55;22.20;99.90
24152;DHT22;12311;50.866;4.332;2023-07-29T09:13:23;22.30;99.90
24152;DHT22;12311;50.866;4.332;2023-07-29T09:15:54;22.30;99.90
24152;DHT22;12311;50.866;4.332;2023-07-29T09:18:22;22.40;99.90
24152;DHT22;12311;50.866;4.332;2023-07-29T09:20:48;22.50;99.90
24152;DHT22;12311;50.866;4.332;2023-07-29T09:23:14;22.60;99.90
24152;DHT22;12311;50.866;4.332;2023-07-29T09:25:40;22.70;99.90
24152;DHT22;12311;50.866;4.332;2023-07-29T09:28:11;22.50;99.90
24152;DHT22;12311;50.866;4.332;2023-07-29T09:30:42;22.50;99.90
24152;DHT22;12311;50.866;4.332;2023-07-29T09:33:10;22.70;99.90
24152;DHT22;12311;50.866;4.332;2023-07-29T09:35:37;23.20;99.90
24152;DHT22;12311;50.866;4.332;2023-07-29T09:38:05;23.20;99.90
24152;DHT22;12311;50.866;4.332;2023-07-29T09:40:36;23.20;99.90
24152;DHT22;12311;50.866;4.332;2023-07-29T09:43:04;22.80;99.90
24152;DHT22;12311;50.866;4.332;2023-07-29T09:45:32;22.40;99.90
24152;DHT22;12311;50.866;4.332;2023-07-29T09:47:58;22.30;99.90
24152;DHT22;12311;50.866;4.332;2023-07-29T09:50:25;22.40;99.90
24152;DHT22;12311;50.866;4.332;2023-07-29T09:52:51;22.40;99.90
24152;DHT22;12311;50.866;4.332;2023-07-29T09:55:19;22.50;99.90
24152;DHT22;12311;50.866;4.332;2023-07-29T09:57:45;22.50;99.90
24152;DHT22;12311;50.866;4.332;2023-07-29T10:00:11;22.70;99.90
24152;DHT22;12311;50.866;4.332;2023-07-29T10:02:42;22.90;99.90
24152;DHT22;12311;50.866;4.332;2023-07-29T10:05:09;23.50;99.90
24152;DHT22;12311;50.866;4.332;2023-07-29T10:07:39;24.10;99.90
24152;DHT22;12311;50.866;4.332;2023-07-29T10:10:06;24.10;99.90
24152;DHT22;12311;50.866;4.332;2023-07-29T10:12:34;24.10;99.90
24152;DHT22;12311;50.866;4.332;2023-07-29T10:15:03;24.10;99.90
24152;DHT22;12311;50.866;4.332;2023-07-29T10:17:30;24.10;99.90
24152;DHT22;12311;50.866;4.332;2023-07-29T10:19:56;24.40;99.90
24152;DHT22;12311;50.866;4.332;2023-07-29T10:22:31;24.60;99.90
24152;DHT22;12311;50.866;4.332;2023-07-29T10:28:07;24.80;99.90
24152;DHT22;12311;50.866;4.332;2023-07-29T10:30:33;24.50;99.90
24152;DHT22;12311;50.866;4.332;2023-07-29T10:33:02;24.40;99.90
24152;DHT22;12311;50.866;4.332;2023-07-29T10:35:28;23.90;99.90
24152;DHT22;12311;50.866;4.332;2023-07-29T10:37:55;23.60;99.90
24152;DHT22;12311;50.866;4.332;2023-07-29T10:40:21;22.80;99.90
24152;DHT22;12311;50.866;4.332;2023-07-29T10:43:18;21.60;99.90
24152;DHT22;12311;50.866;4.332;2023-07-29T10:45:44;20.80;99.90
24152;DHT22;12311;50.866;4.332;2023-07-29T10:48:11;20.30;99.90
24152;DHT22;12311;50.866;4.332;2023-07-29T10:50:37;20.10;99.90
24152;DHT22;12311;50.866;4.332;2023-07-29T10:53:03;20.00;99.90
24152;DHT22;12311;50.866;4.332;2023-07-29T10:55:33;20.00;99.90
24152;DHT22;12311;50.866;4.332;2023-07-29T10:58:14;19.90;99.90
24152;DHT22;12311;50.866;4.332;2023-07-29T11:00:43;19.80;99.90
24152;DHT22;12311;50.866;4.332;2023-07-29T11:03:12;19.70;99.90
24152;DHT22;12311;50.866;4.332;2023-07-29T11:05:45;19.70;99.90
24152;DHT22;12311;50.866;4.332;2023-07-29T11:08:23;19.60;99.90
24152;DHT22;12311;50.866;4.332;2023-07-29T11:11:09;19.50;99.90
24152;DHT22;12311;50.866;4.332;2023-07-29T11:13:37;19.50;99.90
24152;DHT22;12311;50.866;4.332;2023-07-29T11:16:04;19.50;99.90
24152;DHT22;12311;50.866;4.332;2023-07-29T11:18:32;19.50;99.90
24152;DHT22;12311;50.866;4.332;2023-07-29T11:20:59;19.50;99.90
24152;DHT22;12311;50.866;4.332;2023-07-29T11:23:33;19.50;99.90
24152;DHT22;12311;50.866;4.332;2023-07-29T11:25:59;19.60;99.90
24152;DHT22;12311;50.866;4.332;2023-07-29T11:28:26;19.80;99.90
24152;DHT22;12311;50.866;4.332;2023-07-29T11:30:52;19.80;99.90
24152;DHT22;12311;50.866;4.332;2023-07-29T11:33:20;20.10;99.90
24152;DHT22;12311;50.866;4.332;2023-07-29T11:35:46;20.60;99.90
24152;DHT22;12311;50.866;4.332;2023-07-29T11:38:16;21.20;99.90
24152;DHT22;12311;50.866;4.332;2023-07-29T11:40:42;21.70;99.90
24152;DHT22;12311;50.866;4.332;2023-07-29T11:43:08;22.10;99.90
24152;DHT22;12311;50.866;4.332;2023-07-29T11:45:33;22.50;99.90
24152;DHT22;12311;50.866;4.332;2023-07-29T11:48:01;22.60;99.90
24152;DHT22;12311;50.866;4.332;2023-07-29T11:50:27;22.90;99.90
24152;DHT22;12311;50.866;4.332;2023-07-29T11:52:53;23.80;99.90
24152;DHT22;12311;50.866;4.332;2023-07-29T11:55:19;24.30;99.90
24152;DHT22;12311;50.866;4.332;2023-07-29T11:57:47;24.60;99.90
24152;DHT22;12311;50.866;4.332;2023-07-29T12:00:17;25.00;99.90
24152;DHT22;12311;50.866;4.332;2023-07-29T12:02:45;24.50;99.90
24152;DHT22;12311;50.866;4.332;2023-07-29T12:05:12;24.30;99.90
24152;DHT22;12311;50.866;4.332;2023-07-29T12:07:39;23.70;99.90
24152;DHT22;12311;50.866;4.332;2023-07-29T12:10:06;23.30;99.90
24152;DHT22;12311;50.866;4.332;2023-07-29T12:12:32;22.50;99.90
24152;DHT22;12311;50.866;4.332;2023-07-29T12:14:58;21.60;99.90
24152;DHT22;12311;50.866;4.332;2023-07-29T12:17:23;21.10;99.90
24152;DHT22;12311;50.866;4.332;2023-07-29T12:19:49;20.90;99.90
24152;DHT22;12311;50.866;4.332;2023-07-29T12:22:18;20.80;99.90
24152;DHT22;12311;50.866;4.332;2023-07-29T12:24:45;21.10;99.90
24152;DHT22;12311;50.866;4.332;2023-07-29T12:27:13;21.30;99.90
24152;DHT22;12311;50.866;4.332;2023-07-29T12:29:44;21.30;99.90
24152;DHT22;12311;50.866;4.332;2023-07-29T12:32:11;21.60;99.90
24152;DHT22;12311;50.866;4.332;2023-07-29T12:34:38;22.10;99.90
24152;DHT22;12311;50.866;4.332;2023-07-29T12:37:05;22.50;99.90
24152;DHT22;12311;50.866;4.332;2023-07-29T12:39:39;22.70;99.90
24152;DHT22;12311;50.866;4.332;2023-07-29T12:42:05;22.80;99.90
24152;DHT22;12311;50.866;4.332;2023-07-29T12:44:34;23.20;99.90
24152;DHT22;12311;50.866;4.332;2023-07-29T12:47:04;23.80;99.90
24152;DHT22;12311;50.866;4.332;2023-07-29T12:49:30;24.20;99.90
24152;DHT22;12311;50.866;4.332;2023-07-29T12:51:57;24.20;99.90
24152;DHT22;12311;50.866;4.332;2023-07-29T12:54:23;24.40;99.90
24152;DHT22;12311;50.866;4.332;2023-07-29T12:56:48;24.60;99.90
24152;DHT22;12311;50.866;4.332;2023-07-29T12:59:15;24.90;99.90
24152;DHT22;12311;50.866;4.332;2023-07-29T13:01:40;24.80;99.90
24152;DHT22;12311;50.866;4.332;2023-07-29T13:04:06;24.50;99.90
24152;DHT22;12311;50.866;4.332;2023-07-29T13:06:32;24.80;99.90
24152;DHT22;12311;50.866;4.332;2023-07-29T13:08:58;25.30;99.90
24152;DHT22;12311;50.866;4.332;2023-07-29T13:11:23;25.40;99.90
24152;DHT22;12311;50.866;4.332;2023-07-29T13:13:49;25.90;99.90
24152;DHT22;12311;50.866;4.332;2023-07-29T13:16:15;26.20;99.90
24152;DHT22;12311;50.866;4.332;2023-07-29T13:18:41;26.30;99.90
24152;DHT22;12311;50.866;4.332;2023-07-29T13:21:08;26.20;99.90
24152;DHT22;12311;50.866;4.332;2023-07-29T13:23:34;26.00;99.90
24152;DHT22;12311;50.866;4.332;2023-07-29T13:26:00;26.00;99.90
24152;DHT22;12311;50.866;4.332;2023-07-29T13:28:25;25.50;99.90
24152;DHT22;12311;50.866;4.332;2023-07-29T13:30:51;25.00;99.90
24152;DHT22;12311;50.866;4.332;2023-07-29T13:33:17;25.00;99.90
24152;DHT22;12311;50.866;4.332;2023-07-29T13:35:43;25.60;99.90
24152;DHT22;12311;50.866;4.332;2023-07-29T13:38:08;26.20;99.90
24152;DHT22;12311;50.866;4.332;2023-07-29T13:40:34;26.10;99.90
24152;DHT22;12311;50.866;4.332;2023-07-29T13:43:00;26.20;99.90
24152;DHT22;12311;50.866;4.332;2023-07-29T13:45:25;26.40;99.90
24152;DHT22;12311;50.866;4.332;2023-07-29T13:47:52;26.50;99.90
24152;DHT22;12311;50.866;4.332;2023-07-29T13:50:18;27.00;99.90
24152;DHT22;12311;50.866;4.332;2023-07-29T13:52:44;27.50;99.90
24152;DHT22;12311;50.866;4.332;2023-07-29T13:55:10;27.70;99.90
24152;DHT22;12311;50.866;4.332;2023-07-29T13:57:37;27.30;99.90
24152;DHT22;12311;50.866;4.332;2023-07-29T14:00:03;26.70;99.90
24152;DHT22;12311;50.866;4.332;2023-07-29T14:02:29;26.20;99.90
24152;DHT22;12311;50.866;4.332;2023-07-29T14:04:56;25.80;99.90
24152;DHT22;12311;50.866;4.332;2023-07-29T14:07:22;25.70;99.90
24152;DHT22;12311;50.866;4.332;2023-07-29T14:09:48;25.90;99.90
24152;DHT22;12311;50.866;4.332;2023-07-29T14:12:14;25.90;99.90
24152;DHT22;12311;50.866;4.332;2023-07-29T14:14:41;26.10;99.90
24152;DHT22;12311;50.866;4.332;2023-07-29T14:17:07;26.30;99.90
24152;DHT22;12311;50.866;4.332;2023-07-29T14:19:34;26.80;99.90
24152;DHT22;12311;50.866;4.332;2023-07-29T14:22:00;27.80;99.90
24152;DHT22;12311;50.866;4.332;2023-07-29T14:24:26;27.10;99.90
24152;DHT22;12311;50.866;4.332;2023-07-29T14:26:52;26.90;99.90
24152;DHT22;12311;50.866;4.332;2023-07-29T14:29:17;26.30;99.90
24152;DHT22;12311;50.866;4.332;2023-07-29T14:31:44;26.80;99.90
24152;DHT22;12311;50.866;4.332;2023-07-29T14:34:10;26.60;99.90
24152;DHT22;12311;50.866;4.332;2023-07-29T14:36:36;26.10;99.90
24152;DHT22;12311;50.866;4.332;2023-07-29T14:39:02;25.90;99.90
24152;DHT22;12311;50.866;4.332;2023-07-29T14:41:28;25.60;99.90
24152;DHT22;12311;50.866;4.332;2023-07-29T14:43:53;25.90;99.90
24152;DHT22;12311;50.866;4.332;2023-07-29T14:46:19;25.70;99.90
24152;DHT22;12311;50.866;4.332;2023-07-29T14:48:45;25.60;99.90
24152;DHT22;12311;50.866;4.332;2023-07-29T14:51:12;25.40;99.90
24152;DHT22;12311;50.866;4.332;2023-07-29T14:53:38;25.40;99.90
24152;DHT22;12311;50.866;4.332;2023-07-29T14:56:04;25.40;99.90
24152;DHT22;12311;50.866;4.332;2023-07-29T14:58:30;25.20;99.90
24152;DHT22;12311;50.866;4.332;2023-07-29T15:00:56;25.40;99.90
24152;DHT22;12311;50.866;4.332;2023-07-29T15:03:23;25.80;99.90
24152;DHT22;12311;50.866;4.332;2023-07-29T15:05:49;25.30;99.90
24152;DHT22;12311;50.866;4.332;2023-07-29T15:08:15;25.40;99.90
24152;DHT22;12311;50.866;4.332;2023-07-29T15:10:40;25.30;99.90
24152;DHT22;12311;50.866;4.332;2023-07-29T15:13:10;24.90;99.90
24152;DHT22;12311;50.866;4.332;2023-07-29T15:15:35;24.80;99.90
24152;DHT22;12311;50.866;4.332;2023-07-29T15:18:01;24.60;99.90
24152;DHT22;12311;50.866;4.332;2023-07-29T15:20:27;24.20;99.90
24152;DHT22;12311;50.866;4.332;2023-07-29T15:22:52;24.30;99.90
24152;DHT22;12311;50.866;4.332;2023-07-29T15:25:18;24.20;99.90
24152;DHT22;12311;50.866;4.332;2023-07-29T15:27:44;24.20;99.90
24152;DHT22;12311;50.866;4.332;2023-07-29T15:30:09;24.40;99.90
24152;DHT22;12311;50.866;4.332;2023-07-29T15:32:38;24.60;99.90
24152;DHT22;12311;50.866;4.332;2023-07-29T15:35:04;24.30;99.90